Time;durP1;ratioP1;P1;durP2;ratioP2;P2;SDS_P1;SDS_P2;PMS_P1;PMS_P2;Temp;Humidity;BMP_temperature;BMP_pressure;BME280_temperature;BME280_humidity;BME280_pressure;Samples;Min_cycle;Max_cycle;Signal;HPM_P1;HPM_P2
2021/05/08 00:01:10;;;;;;;;;;;;;;;9.54;100.00;98343.84;1655674;86;20242;-72
2021/05/08 00:03:38;;;;;;;;;;;;;;;9.54;100.00;98345.73;1667314;85;21344;-71
2021/05/08 00:06:08;;;;;;;;;;;;;;;9.53;100.00;98348.95;1667191;86;20210;-70
2021/05/08 00:08:36;;;;;;;;;;;;;;;9.52;100.00;98340.63;1667279;85;20138;-70
2021/05/08 00:11:04;;;;;;;;;;;;;;;9.51;100.00;98340.93;1667226;86;20158;-70
2021/05/08 00:13:32;;;;;;;;;;;;;;;9.50;100.00;98340.11;1667023;86;20273;-70
2021/05/08 00:16:00;;;;;;;;;;;;;;;9.50;100.00;98337.97;1667341;84;21367;-71
2021/05/08 00:18:28;;;;;;;;;;;;;;;9.50;100.00;98340.11;1667153;86;20246;-71
2021/05/08 00:20:56;;;;;;;;;;;;;;;9.49;100.00;98341.73;1667184;85;20147;-70
2021/05/08 00:23:24;;;;;;;;;;;;;;;9.50;100.00;98336.63;1687352;83;20296;-71
2021/05/08 00:25:51;;;;;;;;;;;;;;;9.50;100.00;98333.95;1678133;85;20438;-71
2021/05/08 00:28:20;;;;;;;;;;;;;;;9.50;100.00;98336.63;1678032;85;21380;-71
2021/05/08 00:30:47;;;;;;;;;;;;;;;9.51;100.00;98340.93;1678397;85;20143;-70
2021/05/08 00:33:15;;;;;;;;;;;;;;;9.51;100.00;98340.38;1678396;85;20159;-70
2021/05/08 00:35:45;;;;;;;;;;;;;;;9.53;100.00;98346.27;1658752;85;20297;-69
2021/05/08 00:38:14;;;;;;;;;;;;;;;9.52;100.00;98350.55;1678167;85;20226;-71
2021/05/08 00:40:42;;;;;;;;;;;;;;;9.52;100.00;98346.53;1677875;85;21382;-71
2021/05/08 00:43:10;;;;;;;;;;;;;;;9.50;100.00;98349.48;1678336;85;20222;-71
2021/05/08 00:45:39;;;;;;;;;;;;;;;9.50;100.00;98348.69;1678402;85;20166;-71
2021/05/08 00:48:09;;;;;;;;;;;;;;;9.46;100.00;98339.08;1678400;85;20296;-71
2021/05/08 00:50:37;;;;;;;;;;;;;;;9.44;100.00;98337.20;1681770;84;20225;-70
2021/05/08 00:53:07;;;;;;;;;;;;;;;9.41;100.00;98337.77;1697058;84;21210;-70
2021/05/08 00:55:36;;;;;;;;;;;;;;;9.39;100.00;98330.54;1687901;85;20162;-71
2021/05/08 00:58:08;;;;;;;;;;;;;;;9.35;100.00;98334.29;1664679;86;20256;-71
2021/05/08 01:00:37;;;;;;;;;;;;;;;9.34;100.00;98326.55;1670859;86;20227;-71
2021/05/08 01:03:06;;;;;;;;;;;;;;;9.32;100.00;98322.80;1670867;86;20227;-71
2021/05/08 01:05:36;;;;;;;;;;;;;;;9.31;100.00;98322.55;1665965;86;21392;-71
2021/05/08 01:08:06;;;;;;;;;;;;;;;9.30;100.00;98322.81;1671136;86;20263;-70
2021/05/08 01:10:34;;;;;;;;;;;;;;;9.28;100.00;98326.30;1671047;86;20140;-70
2021/05/08 01:13:02;;;;;;;;;;;;;;;9.29;100.00;98327.91;1670862;86;20227;-71
2021/05/08 01:15:30;;;;;;;;;;;;;;;9.28;100.00;98331.11;1671104;86;20227;-71
2021/05/08 01:17:58;;;;;;;;;;;;;;;9.25;100.00;98322.84;1649964;86;21493;-71
2021/05/08 01:20:25;;;;;;;;;;;;;;;9.23;100.00;98327.12;1671111;86;20226;-71
2021/05/08 01:22:56;;;;;;;;;;;;;;;9.24;100.00;98340.78;1674001;84;20247;-71
2021/05/08 01:25:26;;;;;;;;;;;;;;;9.24;100.00;98343.46;1672830;84;20231;-71
2021/05/08 01:27:56;;;;;;;;;;;;;;;9.23;100.00;98333.30;1674768;85;20227;-72
2021/05/08 01:30:35;;;;;;;;;;;;;;;9.22;100.00;98323.64;1674738;85;21377;-71
2021/05/08 01:33:07;;;;;;;;;;;;;;;9.22;100.00;98329.00;1674675;84;20245;-72
2021/05/08 01:35:35;;;;;;;;;;;;;;;9.23;100.00;98333.30;1643987;85;20235;-71
2021/05/08 01:38:03;;;;;;;;;;;;;;;9.25;100.00;98330.87;1644544;85;20235;-71
2021/05/08 01:40:34;;;;;;;;;;;;;;;9.25;100.00;98326.85;1674670;85;20375;-71
2021/05/08 01:43:02;;;;;;;;;;;;;;;9.24;100.00;98330.08;1643998;85;21384;-71
2021/05/08 01:45:31;;;;;;;;;;;;;;;9.22;100.00;98322.30;1674725;85;20140;-71
2021/05/08 01:48:00;;;;;;;;;;;;;;;9.22;100.00;98317.50;1674828;85;20494;-71
2021/05/08 01:50:30;;;;;;;;;;;;;;;9.19;100.00;98316.72;1674777;85;20159;-70
2021/05/08 01:52:58;;;;;;;;;;;;;;;9.18;100.00;98321.24;1674792;85;20145;-71
2021/05/08 01:55:27;;;;;;;;;;;;;;;9.18;100.00;98313.75;1674349;85;20510;-71
2021/05/08 01:57:57;;;;;;;;;;;;;;;9.18;100.00;98324.46;1674694;85;20220;-71
2021/05/08 02:00:38;;;;;;;;;;;;;;;9.16;100.00;98331.45;1674563;85;20497;-72
2021/05/08 02:03:07;;;;;;;;;;;;;;;9.16;100.00;98330.63;1674432;85;20223;-72
2021/05/08 02:05:38;;;;;;;;;;;;;;;9.15;100.00;98331.17;1674836;85;20512;-71
2021/05/08 02:08:08;;;;;;;;;;;;;;;9.16;100.00;98333.30;1674865;85;21392;-71
2021/05/08 02:10:37;;;;;;;;;;;;;;;9.17;100.00;98334.92;1674759;85;20172;-71
2021/05/08 02:13:05;;;;;;;;;;;;;;;9.17;100.00;98337.59;1674851;85;20140;-71
2021/05/08 02:15:35;;;;;;;;;;;;;;;9.16;100.00;98336.80;1674872;85;20140;-71
2021/05/08 02:18:07;;;;;;;;;;;;;;;9.15;100.00;98341.08;1674865;85;20244;-71
2021/05/08 02:20:38;;;;;;;;;;;;;;;9.14;100.00;98343.51;1674777;85;21399;-71
2021/05/08 02:23:08;;;;;;;;;;;;;;;9.12;100.00;98341.09;1656342;84;21036;-72
2021/05/08 02:25:36;;;;;;;;;;;;;;;9.12;100.00;98345.66;1700588;84;20153;-71
2021/05/08 02:28:06;;;;;;;;;;;;;;;9.11;100.00;98350.72;1700307;84;20233;-70
2021/05/08 02:30:36;;;;;;;;;;;;;;;9.10;100.00;98351.27;1671332;84;20242;-71
2021/05/08 02:33:04;;;;;;;;;;;;;;;9.11;100.00;98343.48;1700550;84;21375;-71
2021/05/08 02:35:32;;;;;;;;;;;;;;;9.13;100.00;98342.68;1700248;84;20229;-71
2021/05/08 02:38:01;;;;;;;;;;;;;;;9.11;100.00;98336.80;1700607;84;20138;-71
2021/05/08 02:40:33;;;;;;;;;;;;;;;9.12;100.00;98349.13;1700448;84;20232;-70
2021/05/08 02:43:03;;;;;;;;;;;;;;;9.12;100.00;98353.69;1700527;84;20241;-72
2021/05/08 02:45:32;;;;;;;;;;;;;;;9.13;100.00;98353.39;1700539;84;21945;-70
2021/05/08 02:48:02;;;;;;;;;;;;;;;9.12;100.00;98357.16;1700497;84;20138;-71
2021/05/08 02:50:32;;;;;;;;;;;;;;;9.10;100.00;98363.31;1700324;84;20299;-71
2021/05/08 02:53:01;;;;;;;;;;;;;;;9.12;100.00;98367.06;1700593;84;20118;-72
2021/05/08 02:55:30;;;;;;;;;;;;;;;9.11;100.00;98364.91;1700490;84;20213;-71
2021/05/08 02:58:01;;;;;;;;;;;;;;;9.12;100.00;98364.39;1700578;84;21350;-70
2021/05/08 03:00:28;;;;;;;;;;;;;;;9.11;100.00;98356.88;1700623;84;20504;-72
2021/05/08 03:02:56;;;;;;;;;;;;;;;9.08;100.00;98367.34;1700536;84;20217;-70
2021/05/08 03:05:24;;;;;;;;;;;;;;;9.06;100.00;98364.92;1700350;84;20511;-72
2021/05/08 03:07:55;;;;;;;;;;;;;;;9.06;100.00;98358.77;1700563;84;20158;-71
2021/05/08 03:10:23;;;;;;;;;;;;;;;9.04;100.00;98355.05;1700517;84;21217;-71
2021/05/08 03:12:53;;;;;;;;;;;;;;;9.03;100.00;98368.69;1700530;83;20189;-69
2021/05/08 03:15:22;;;;;;;;;;;;;;;8.97;100.00;98359.89;1700416;84;20158;-71
2021/05/08 03:17:51;;;;;;;;;;;;;;;8.94;100.00;98375.95;1700606;84;21185;-70
2021/05/08 03:20:22;;;;;;;;;;;;;;;8.95;100.00;98370.05;1700584;84;20181;-69
2021/05/08 03:22:50;;;;;;;;;;;;;;;8.88;100.00;98371.67;1694329;84;21383;-69
2021/05/08 03:25:20;;;;;;;;;;;;;;;8.83;100.00;98381.05;1681109;85;20227;-68
2021/05/08 03:27:50;;;;;;;;;;;;;;;8.81;100.00;98377.84;1681452;85;20490;-71
2021/05/08 03:30:18;;;;;;;;;;;;;;;8.78;100.00;98378.39;1681266;85;20236;-70
2021/05/08 03:32:47;;;;;;;;;;;;;;;8.77;100.00;98379.44;1681436;85;20222;-67
2021/05/08 03:35:15;;;;;;;;;;;;;;;8.73;100.00;98373.84;1681439;85;21275;-68
2021/05/08 03:37:46;;;;;;;;;;;;;;;8.68;100.00;98382.42;1681389;85;20227;-68
2021/05/08 03:40:15;;;;;;;;;;;;;;;8.69;100.00;98396.05;1681204;85;20256;-65
2021/05/08 03:42:45;;;;;;;;;;;;;;;8.67;100.00;98388.83;1681405;85;20231;-70
2021/05/08 03:45:14;;;;;;;;;;;;;;;8.70;100.00;98391.78;1681509;85;20502;-68
2021/05/08 03:47:44;;;;;;;;;;;;;;;8.69;100.00;98396.05;1681490;85;22348;-69
2021/05/08 03:50:12;;;;;;;;;;;;;;;8.70;100.00;98401.14;1681192;85;20219;-70
2021/05/08 03:52:40;;;;;;;;;;;;;;;8.74;100.00;98398.72;1681390;85;20180;-71
2021/05/08 03:55:09;;;;;;;;;;;;;;;8.73;100.00;98393.91;1681390;85;20133;-69
2021/05/08 03:57:37;;;;;;;;;;;;;;;8.76;100.00;98396.58;1681412;85;20223;-69
2021/05/08 04:00:06;;;;;;;;;;;;;;;8.77;100.00;98407.02;1681323;85;22402;-71
2021/05/08 04:02:35;;;;;;;;;;;;;;;8.77;100.00;98408.36;1680648;85;20726;-70
2021/05/08 04:05:03;;;;;;;;;;;;;;;8.76;100.00;98413.42;1681808;83;20183;-69
2021/05/08 04:07:33;;;;;;;;;;;;;;;8.76;100.00;98416.10;1682756;84;20337;-70
2021/05/08 04:10:02;;;;;;;;;;;;;;;8.75;100.00;98423.87;1691995;84;20225;-70
2021/05/08 04:12:30;;;;;;;;;;;;;;;8.69;100.00;98420.12;1680624;85;22360;-69
2021/05/08 04:14:58;;;;;;;;;;;;;;;8.67;100.00;98432.96;1680574;84;20231;-71
2021/05/08 04:17:26;;;;;;;;;;;;;;;8.62;100.00;98441.78;1680825;85;20238;-70
2021/05/08 04:19:56;;;;;;;;;;;;;;;8.56;100.00;98436.19;1680542;84;20541;-70
2021/05/08 04:22:23;;;;;;;;;;;;;;;8.52;100.00;98445.80;1679937;85;20306;-71
2021/05/08 04:24:51;;;;;;;;;;;;;;;8.50;100.00;98447.94;1680478;85;21479;-70
2021/05/08 04:27:18;;;;;;;;;;;;;;;8.49;100.00;98459.72;1680092;85;20294;-69
2021/05/08 04:29:48;;;;;;;;;;;;;;;8.45;100.00;98464.81;1679789;82;20294;-70
2021/05/08 04:32:16;;;;;;;;;;;;;;;8.45;100.00;98455.96;1680749;85;20601;-70
2021/05/08 04:34:44;;;;;;;;;;;;;;;8.46;100.00;98454.91;1651158;85;20235;-70
2021/05/08 04:37:11;;;;;;;;;;;;;;;8.49;100.00;98466.41;1680957;85;21382;-72
2021/05/08 04:39:40;;;;;;;;;;;;;;;8.48;100.00;98468.82;1680466;85;20557;-69
2021/05/08 04:42:08;;;;;;;;;;;;;;;8.48;100.00;98476.84;1680621;85;20334;-67
2021/05/08 04:44:36;;;;;;;;;;;;;;;8.47;100.00;98476.02;1680607;85;20931;-71
2021/05/08 04:47:05;;;;;;;;;;;;;;;8.48;100.00;98473.62;1680768;85;20242;-64
2021/05/08 04:49:35;;;;;;;;;;;;;;;8.48;100.00;98460.80;1680465;84;21180;-69
2021/05/08 04:52:04;;;;;;;;;;;;;;;8.49;100.00;98475.22;1680668;85;20244;-69
2021/05/08 04:54:32;;;;;;;;;;;;;;;8.49;100.00;98473.89;1665926;85;20422;-70
2021/05/08 04:57:00;;;;;;;;;;;;;;;8.55;100.00;98488.09;1680792;85;20293;-70
2021/05/08 04:59:27;;;;;;;;;;;;;;;8.56;100.00;98491.02;1680285;84;20255;-70
2021/05/08 05:01:55;;;;;;;;;;;;;;;8.55;100.00;98496.11;1680868;85;21450;-69
2021/05/08 05:04:23;;;;;;;;;;;;;;;8.55;100.00;98502.80;1680602;85;20290;-72
2021/05/08 05:06:51;;;;;;;;;;;;;;;8.51;100.00;98504.39;1699555;83;20232;-70
2021/05/08 05:09:20;;;;;;;;;;;;;;;8.51;100.00;98502.51;1715961;82;21727;-72
2021/05/08 05:11:48;;;;;;;;;;;;;;;8.50;100.00;98500.91;1715864;83;20236;-68
2021/05/08 05:14:16;;;;;;;;;;;;;;;8.48;100.00;98506.26;1716522;83;22132;-70
2021/05/08 05:16:44;;;;;;;;;;;;;;;8.48;100.00;98508.94;1716278;83;20236;-69
2021/05/08 05:19:13;;;;;;;;;;;;;;;8.49;100.00;98517.22;1716289;83;20137;-72
2021/05/08 05:21:44;;;;;;;;;;;;;;;8.47;100.00;98515.34;1716212;83;20252;-72
2021/05/08 05:24:13;;;;;;;;;;;;;;;8.42;100.00;98501.42;1677419;84;20386;-70
2021/05/08 05:26:40;;;;;;;;;;;;;;;8.44;100.00;98517.21;1702597;84;22262;-70
2021/05/08 05:29:10;;;;;;;;;;;;;;;8.41;100.00;98515.87;1699797;84;20752;-70
2021/05/08 05:31:38;;;;;;;;;;;;;;;8.36;100.00;98504.59;1699409;84;20290;-69
2021/05/08 05:34:06;;;;;;;;;;;;;;;8.34;100.00;98516.63;1699495;84;20289;-70
2021/05/08 05:36:34;;;;;;;;;;;;;;;8.34;100.00;98526.78;1699954;84;20257;-69
2021/05/08 05:39:02;;;;;;;;;;;;;;;8.32;100.00;98527.57;1702118;84;21350;-70
2021/05/08 05:41:32;;;;;;;;;;;;;;;8.27;100.00;98530.23;1703306;84;20229;-70
2021/05/08 05:44:01;;;;;;;;;;;;;;;8.25;100.00;98537.70;1703378;84;20233;-70
2021/05/08 05:46:30;;;;;;;;;;;;;;;8.14;100.00;98543.56;1703414;84;20228;-71
2021/05/08 05:48:58;;;;;;;;;;;;;;;8.01;100.00;98548.08;1700261;84;20277;-71
2021/05/08 05:51:28;;;;;;;;;;;;;;;7.91;100.00;98544.83;1699871;84;21378;-68
2021/05/08 05:53:56;;;;;;;;;;;;;;;7.85;100.00;98555.74;1698996;84;20670;-71
2021/05/08 05:56:26;;;;;;;;;;;;;;;7.80;100.00;98553.84;1699213;84;20229;-70
2021/05/08 05:59:00;;;;;;;;;;;;;;;7.77;100.00;98558.92;1699794;84;20228;-70
2021/05/08 06:01:30;;;;;;;;;;;;;;;7.70;100.00;98561.81;1699608;84;20237;-67
2021/05/08 06:03:58;;;;;;;;;;;;;;;7.64;100.00;98551.64;1669259;84;22375;-67
2021/05/08 06:06:26;;;;;;;;;;;;;;;7.60;100.00;98557.22;1694337;83;20256;-70
2021/05/08 06:08:55;;;;;;;;;;;;;;;7.52;100.00;98573.70;1692066;83;20253;-68
2021/05/08 06:11:25;;;;;;;;;;;;;;;7.28;100.00;98562.63;1694590;84;20305;-72
2021/05/08 06:13:54;;;;;;;;;;;;;;;6.98;100.00;98590.68;1694467;83;21076;-69
2021/05/08 06:16:21;;;;;;;;;;;;;;;6.75;100.00;98592.31;1695712;84;21385;-72
2021/05/08 06:18:50;;;;;;;;;;;;;;;6.65;100.00;98605.82;1689327;84;20265;-66
2021/05/08 06:21:18;;;;;;;;;;;;;;;6.49;100.00;98622.70;1688934;85;20185;-64
2021/05/08 06:23:47;;;;;;;;;;;;;;;6.41;100.00;98615.16;1684561;85;20279;-68
2021/05/08 06:26:16;;;;;;;;;;;;;;;6.34;100.00;98610.54;1673512;85;20295;-70
2021/05/08 06:28:44;;;;;;;;;;;;;;;6.32;100.00;98626.80;1673259;85;21627;-69
2021/05/08 06:31:16;;;;;;;;;;;;;;;6.32;100.00;98630.80;1673411;84;20259;-75
2021/05/08 06:33:49;;;;;;;;;;;;;;;6.31;100.00;98642.49;1673426;85;20282;-69
2021/05/08 06:36:20;;;;;;;;;;;;;;;6.31;100.00;98641.16;1672835;85;20541;-70
2021/05/08 06:38:47;;;;;;;;;;;;;;;6.25;100.00;98646.16;1646844;87;20225;-70
2021/05/08 06:41:15;;;;;;;;;;;;;;;6.22;100.00;98664.78;1647672;87;22163;-70
2021/05/08 06:43:44;;;;;;;;;;;;;;;6.20;100.00;98662.89;1647276;87;20627;-69
2021/05/08 06:46:12;;;;;;;;;;;;;;;6.15;100.00;98664.16;1647680;87;20500;-73
2021/05/08 06:48:41;;;;;;;;;;;;;;;6.16;100.00;98678.28;1647424;87;20234;-70
2021/05/08 06:51:08;;;;;;;;;;;;;;;6.14;100.00;98675.05;1647708;87;20253;-71
2021/05/08 06:53:37;;;;;;;;;;;;;;;6.12;100.00;98679.81;1647437;87;21217;-72
2021/05/08 06:56:05;;;;;;;;;;;;;;;6.13;100.00;98676.91;1654424;84;20272;-75
2021/05/08 06:58:33;;;;;;;;;;;;;;;6.19;100.00;98677.78;1682028;84;20275;-69
2021/05/08 07:01:03;;;;;;;;;;;;;;;6.18;100.00;98670.85;1653056;85;20302;-74
2021/05/08 07:03:34;;;;;;;;;;;;;;;6.22;100.00;98691.44;1681798;84;20645;-74
2021/05/08 07:06:02;;;;;;;;;;;;;;;6.25;100.00;98690.13;1693765;84;21231;-71
2021/05/08 07:08:33;;;;;;;;;;;;;;;6.20;100.00;98690.87;1684844;84;20265;-70
2021/05/08 07:11:01;;;;;;;;;;;;;;;6.22;100.00;98693.27;1685437;85;20229;-71
2021/05/08 07:13:31;;;;;;;;;;;;;;;6.18;100.00;98688.97;1651453;85;20248;-71
2021/05/08 07:16:01;;;;;;;;;;;;;;;6.15;100.00;98697.47;1680221;85;20319;-73
2021/05/08 07:18:34;;;;;;;;;;;;;;;6.12;100.00;98707.26;1679913;85;21221;-74
2021/05/08 07:21:00;;;;;;;;;;;;;;;6.08;100.00;98702.69;1675675;85;20632;-73
2021/05/08 07:23:29;;;;;;;;;;;;;;;6.04;100.00;98712.22;1674094;82;20483;-71
2021/05/08 07:25:57;;;;;;;;;;;;;;;6.03;100.00;98720.73;1672900;85;20335;-72
2021/05/08 07:28:25;;;;;;;;;;;;;;;6.04;100.00;98722.34;1673142;85;20251;-69
2021/05/08 07:31:01;;;;;;;;;;;;;;;6.06;100.00;98718.91;1673756;85;22189;-67
2021/05/08 07:33:32;;;;;;;;;;;;;;;6.11;100.00;98724.84;1674264;85;20225;-71
2021/05/08 07:36:03;;;;;;;;;;;;;;;6.13;100.00;98730.73;1674287;85;20270;-69
2021/05/08 07:38:31;;;;;;;;;;;;;;;6.17;100.00;98727.34;1677111;81;20527;-71
2021/05/08 07:40:58;;;;;;;;;;;;;;;6.22;100.00;98727.41;1713218;83;20531;-66
2021/05/08 07:43:28;;;;;;;;;;;;;;;6.32;100.00;98713.92;1711103;84;21366;-69
2021/05/08 07:45:57;;;;;;;;;;;;;;;6.37;100.00;98732.64;1698488;84;20251;-70
2021/05/08 07:48:28;;;;;;;;;;;;;;;6.47;100.00;98742.13;1643508;85;20290;-73
2021/05/08 07:50:56;;;;;;;;;;;;;;;6.57;100.00;98743.59;1674053;85;20227;-68
2021/05/08 07:53:24;;;;;;;;;;;;;;;6.58;100.00;98741.19;1673840;85;20305;-70
2021/05/08 07:56:19;;;;;;;;;;;;;;;6.65;100.00;98745.82;1673994;85;21386;-70
2021/05/08 08:38:37;;;;;;;;;;;;;;;7.34;100.00;98751.66;1721606;79;93848;-69
2021/05/08 08:41:05;;;;;;;;;;;;;;;7.09;100.00;98767.68;1765443;79;20320;-68
2021/05/08 08:43:33;;;;;;;;;;;;;;;6.76;100.00;98752.11;1764676;81;20522;-70
2021/05/08 08:46:02;;;;;;;;;;;;;;;6.56;100.00;98769.16;1764605;81;21371;-72
2021/05/08 08:48:30;;;;;;;;;;;;;;;6.42;100.00;98772.72;1763694;80;20248;-71
2021/05/08 08:51:01;;;;;;;;;;;;;;;6.53;100.00;98763.80;1740347;80;20248;-70
2021/05/08 08:53:29;;;;;;;;;;;;;;;6.82;100.00;98779.10;1764307;81;20299;-70
2021/05/08 08:55:59;;;;;;;;;;;;;;;7.19;100.00;98772.33;1765344;80;20318;-71
2021/05/08 08:58:36;;;;;;;;;;;;;;;7.54;100.00;98788.42;1764531;81;21372;-70
2021/05/08 09:01:03;;;;;;;;;;;;;;;7.79;100.00;98773.98;1762588;81;20240;-70
2021/05/08 09:03:32;;;;;;;;;;;;;;;7.91;100.00;98795.16;1765587;80;20501;-72
2021/05/08 09:06:00;;;;;;;;;;;;;;;7.78;100.00;98754.98;1764029;79;20290;-73
2021/05/08 09:08:31;;;;;;;;;;;;;;;7.49;100.00;98791.31;1750600;81;20178;-71
2021/05/08 09:11:20;;;;;;;;;;;;;;;7.44;100.00;98811.29;1748122;80;20245;-71
2021/05/08 09:13:48;;;;;;;;;;;;;;;7.51;100.00;98805.22;1752016;81;20241;-72
2021/05/08 09:16:17;;;;;;;;;;;;;;;7.60;100.00;98813.61;1704774;82;20265;-72
2021/05/08 09:18:48;;;;;;;;;;;;;;;7.63;100.00;98816.30;1750343;82;20237;-72
2021/05/08 09:21:27;;;;;;;;;;;;;;;7.58;100.00;98802.89;1750304;82;20272;-72
2021/05/08 09:24:00;;;;;;;;;;;;;;;7.39;100.00;98829.13;1750315;82;22101;-70
2021/05/08 09:26:35;;;;;;;;;;;;;;;7.12;100.00;98815.20;1750372;82;20165;-71
2021/05/08 09:29:03;;;;;;;;;;;;;;;6.87;100.00;98843.72;1751856;81;20236;-70
2021/05/08 09:31:36;;;;;;;;;;;;;;;6.83;100.00;98843.92;1723007;82;20225;-65
2021/05/08 09:34:05;;;;;;;;;;;;;;;7.00;100.00;98827.34;1744225;82;20250;-69
2021/05/08 09:36:36;;;;;;;;;;;;;;;7.18;100.00;98846.77;1743986;82;22216;-71
2021/05/08 09:39:08;;;;;;;;;;;;;;;7.33;100.00;98854.97;1736569;82;20304;-71
2021/05/08 09:41:46;;;;;;;;;;;;;;;7.46;100.00;98851.91;1707849;83;20305;-71
2021/05/08 09:44:14;;;;;;;;;;;;;;;7.76;100.00;98867.17;1728112;82;20243;-71
2021/05/08 09:46:42;;;;;;;;;;;;;;;7.99;100.00;98872.75;1728278;82;20501;-70
2021/05/08 09:49:11;;;;;;;;;;;;;;;7.91;100.00;98880.67;1728488;83;21202;-71
2021/05/08 09:51:41;;;;;;;;;;;;;;;7.91;100.00;98887.35;1726817;83;20294;-73
2021/05/08 09:54:18;;;;;;;;;;;;;;;7.98;100.00;98866.58;1714779;83;20292;-72
2021/05/08 09:56:50;;;;;;;;;;;;;;;7.75;100.00;98893.63;1730575;83;21340;-69
2021/05/08 09:59:37;;;;;;;;;;;;;;;7.89;100.00;98896.17;1721607;83;20305;-73
2021/05/08 10:02:12;;;;;;;;;;;;;;;7.81;100.00;98908.63;1723481;83;21200;-73
2021/05/08 10:04:47;;;;;;;;;;;;;;;7.68;100.00;98906.62;1721817;83;20210;-72
2021/05/08 10:07:21;;;;;;;;;;;;;;;7.37;100.00;98905.99;1717394;82;20176;-73
2021/05/08 10:09:58;;;;;;;;;;;;;;;7.16;100.00;98943.11;1743496;82;20314;-72
2021/05/08 10:12:28;;;;;;;;;;;;;;;6.91;100.00;98924.05;1724490;82;20282;-73
2021/05/08 10:14:58;;;;;;;;;;;;;;;6.81;100.00;98937.55;1724524;83;21204;-71
2021/05/08 10:17:27;;;;;;;;;;;;;;;6.95;100.00;98943.87;1725956;83;20673;-72
2021/05/08 10:20:06;;;;;;;;;;;;;;;7.10;100.00;98960.09;1727890;81;20444;-71
2021/05/08 10:22:37;;;;;;;;;;;;;;;6.98;100.00;98968.22;1726654;82;20250;-71
2021/05/08 10:25:06;;;;;;;;;;;;;;;6.99;100.00;98951.14;1724509;82;20242;-73
2021/05/08 10:27:34;;;;;;;;;;;;;;;7.12;100.00;98974.00;1724724;83;21256;-72
2021/05/08 10:30:06;;;;;;;;;;;;;;;7.26;100.00;98977.14;1720229;83;20218;-73
2021/05/08 10:32:39;;;;;;;;;;;;;;;7.27;100.00;98980.88;1717876;82;20230;-71
2021/05/08 10:35:10;;;;;;;;;;;;;;;7.43;100.00;98981.11;1717887;82;20233;-73
2021/05/08 10:37:40;;;;;;;;;;;;;;;7.47;100.00;98990.22;1749156;82;20316;-74
2021/05/08 10:40:15;;;;;;;;;;;;;;;7.63;100.00;98997.39;1749712;79;21140;-75
2021/05/08 10:42:45;;;;;;;;;;;;;;;7.69;100.00;98986.23;1743331;81;20227;-74
2021/05/08 10:45:23;;;;;;;;;;;;;;;7.60;100.00;98999.22;1743351;82;20569;-77
2021/05/08 10:47:59;;;;;;;;;;;;;;;7.44;100.00;98990.72;1743340;82;20793;-69
2021/05/08 10:50:36;;;;;;;;;;;;;;;7.27;100.00;98962.73;1744061;82;20530;-70
2021/05/08 10:53:18;;;;;;;;;;;;;;;7.14;100.00;98997.79;1742939;81;21199;-74
2021/05/08 10:55:57;;;;;;;;;;;;;;;6.94;100.00;99014.30;1743623;82;20359;-71
2021/05/08 10:58:29;;;;;;;;;;;;;;;6.75;100.00;99023.06;1746701;80;20179;-73
2021/05/08 11:01:01;;;;;;;;;;;;;;;6.41;100.00;99021.14;1756755;80;20279;-72
2021/05/08 11:04:00;;;;;;;;;;;;;;;6.34;100.00;99021.00;1755740;81;20224;-73
2021/05/08 11:06:30;;;;;;;;;;;;;;;6.47;100.00;99000.73;1742726;80;21127;-75
2021/05/08 11:09:01;;;;;;;;;;;;;;;6.79;100.00;99009.53;1719610;82;20162;-75
2021/05/08 11:11:47;;;;;;;;;;;;;;;7.23;100.00;98993.13;1723281;83;20265;-74
2021/05/08 11:14:15;;;;;;;;;;;;;;;7.64;100.00;99004.36;1723780;83;20238;-75
2021/05/08 11:16:56;;;;;;;;;;;;;;;7.97;100.00;98999.13;1723467;83;20290;-73
2021/05/08 11:19:27;;;;;;;;;;;;;;;8.15;100.00;99012.16;1718036;82;21139;-75
2021/05/08 11:22:06;;;;;;;;;;;;;;;8.47;100.00;99020.26;1717606;83;20285;-72
2021/05/08 11:24:40;;;;;;;;;;;;;;;8.95;100.00;99008.38;1716175;83;20338;-73
2021/05/08 11:27:23;;;;;;;;;;;;;;;8.95;100.00;99031.13;1761002;80;20289;-71
2021/05/08 11:30:03;;;;;;;;;;;;;;;8.76;100.00;99020.00;1710904;83;20333;-73
2021/05/08 11:32:31;;;;;;;;;;;;;;;9.20;100.00;99015.78;1714508;82;21186;-72
2021/05/08 11:35:25;;;;;;;;;;;;;;;9.32;100.00;99028.98;1730351;82;20253;-77
2021/05/08 11:37:53;;;;;;;;;;;;;;;9.57;100.00;99037.16;1650316;87;20279;-74
2021/05/08 11:40:33;;;;;;;;;;;;;;;9.88;100.00;99022.59;1659027;85;20523;-75
2021/05/08 11:43:00;;;;;;;;;;;;;;;9.86;100.00;99050.18;1699123;83;20237;-76
2021/05/08 12:39:23;;;;;;;;;;;;;;;9.74;91.76;99057.63;1793862;76;93333;-74
2021/05/08 12:41:59;;;;;;;;;;;;;;;9.97;92.68;99081.34;1744408;81;20773;-76
2021/05/08 12:44:37;;;;;;;;;;;;;;;10.08;90.48;99086.20;1747627;81;20508;-75
2021/05/08 12:47:27;;;;;;;;;;;;;;;9.91;89.85;99082.91;1699065;82;20222;-71
2021/05/08 12:50:22;;;;;;;;;;;;;;;10.01;89.54;99086.97;1717140;83;20520;-76
2021/05/08 12:53:05;;;;;;;;;;;;;;;9.64;92.96;99091.87;1720154;82;20512;-68
2021/05/08 12:55:36;;;;;;;;;;;;;;;9.21;100.00;99094.53;1679424;83;21202;-71
2021/05/08 12:58:09;;;;;;;;;;;;;;;9.07;100.00;99101.37;1704920;82;20292;-75
2021/05/08 13:00:41;;;;;;;;;;;;;;;9.22;100.00;99105.50;1705410;82;20219;-76
2021/05/08 13:03:20;;;;;;;;;;;;;;;9.40;95.12;99107.51;1743540;80;20661;-73
2021/05/08 13:05:51;;;;;;;;;;;;;;;9.69;96.25;99116.02;1719385;83;20237;-75
2021/05/08 13:08:52;;;;;;;;;;;;;;;10.21;96.31;99115.21;1714634;82;20568;-74
2021/05/08 13:11:43;;;;;;;;;;;;;;;10.35;89.20;99120.94;1688204;84;20772;-77
2021/05/08 13:14:27;;;;;;;;;;;;;;;10.34;90.28;99114.48;1846776;76;20305;-75
2021/05/08 13:16:55;;;;;;;;;;;;;;;9.96;87.12;99118.59;1855504;77;20293;-76
2021/05/08 13:19:25;;;;;;;;;;;;;;;9.78;86.97;99125.73;1839942;77;21337;-77
2021/05/08 13:21:54;;;;;;;;;;;;;;;9.64;87.91;99126.16;1841194;76;20658;-75
2021/05/08 13:24:26;;;;;;;;;;;;;;;9.50;89.88;99126.33;1827982;77;20149;-77
2021/05/08 13:26:55;;;;;;;;;;;;;;;9.40;90.11;99129.73;1853433;77;20118;-74
2021/05/08 13:29:23;;;;;;;;;;;;;;;9.29;85.21;99133.42;1835438;77;20117;-74
2021/05/08 13:32:01;;;;;;;;;;;;;;;9.24;85.59;99134.72;1826414;77;22187;-77
2021/05/08 13:34:29;;;;;;;;;;;;;;;9.11;84.51;99133.25;1824446;78;20662;-73
2021/05/08 13:36:59;;;;;;;;;;;;;;;9.11;86.60;99104.33;1824175;78;20175;-76
2021/05/08 13:39:27;;;;;;;;;;;;;;;9.09;86.25;99146.61;1824508;77;20282;-74
2021/05/08 13:41:56;;;;;;;;;;;;;;;9.07;86.91;99142.06;1829161;77;20490;-71
2021/05/08 13:44:26;;;;;;;;;;;;;;;9.19;83.57;99147.53;1821355;77;22576;-75
2021/05/08 13:46:58;;;;;;;;;;;;;;;9.26;81.89;99132.59;1826196;77;20133;-73
2021/05/08 13:49:26;;;;;;;;;;;;;;;9.57;79.01;99151.57;1824415;77;20507;-74
2021/05/08 13:51:53;;;;;;;;;;;;;;;9.91;79.64;99141.89;1824529;78;20142;-69
2021/05/08 13:54:21;;;;;;;;;;;;;;;10.20;76.46;99143.11;1824520;78;20502;-72
2021/05/08 13:56:50;;;;;;;;;;;;;;;10.33;74.12;99131.13;1826192;77;21366;-77
2021/05/08 13:59:29;;;;;;;;;;;;;;;10.31;74.42;99154.72;1807332;77;20289;-77
2021/05/08 14:02:00;;;;;;;;;;;;;;;10.51;77.42;99158.84;1828051;77;20514;-76
2021/05/08 14:04:36;;;;;;;;;;;;;;;10.60;74.79;99154.30;1833595;76;20207;-74
2021/05/08 14:07:21;;;;;;;;;;;;;;;10.70;76.62;99163.18;1823681;76;20133;-76
2021/05/08 14:09:54;;;;;;;;;;;;;;;10.79;80.35;99158.12;1823303;78;21420;-75
2021/05/08 14:12:22;;;;;;;;;;;;;;;10.89;77.12;99164.05;1825280;76;20257;-75
2021/05/08 14:14:53;;;;;;;;;;;;;;;11.13;78.93;99162.48;1825717;77;20307;-75
2021/05/08 14:17:23;;;;;;;;;;;;;;;10.93;75.95;99171.31;1857251;77;20320;-77
2021/05/08 14:19:55;;;;;;;;;;;;;;;10.73;75.94;99172.61;1829772;77;20241;-75
2021/05/08 14:22:26;;;;;;;;;;;;;;;10.81;78.46;99164.03;1855570;77;21122;-76
2021/05/08 14:24:57;;;;;;;;;;;;;;;10.65;79.25;99171.76;1813641;78;20295;-75
2021/05/08 14:27:25;;;;;;;;;;;;;;;10.45;76.87;99169.81;1797475;79;20377;-76
2021/05/08 14:29:59;;;;;;;;;;;;;;;10.62;77.69;99169.61;1757756;80;20519;-74
2021/05/08 14:32:28;;;;;;;;;;;;;;;10.59;78.86;99162.89;1802762;79;20335;-74
2021/05/08 14:35:01;;;;;;;;;;;;;;;10.53;83.45;99179.23;1806187;79;21372;-76
2021/05/08 14:37:32;;;;;;;;;;;;;;;10.45;81.09;99180.55;1785156;80;20224;-75
2021/05/08 14:40:12;;;;;;;;;;;;;;;10.07;80.04;99177.91;1768310;80;20570;-72